Time;durP1;ratioP1;P1;durP2;ratioP2;P2;SDS_P1;SDS_P2;PMS_P1;PMS_P2;Temp;Humidity;BMP_temperature;BMP_pressure;BME280_temperature;BME280_humidity;BME280_pressure;Samples;Min_cycle;Max_cycle;Signal;HPM_P1;HPM_P2
2021/01/10 00:00:40;;;;;;;40.70;21.10;;;2.90;99.90;;;;;;4914432;29;20230;-74
2021/01/10 00:03:07;;;;;;;41.47;20.55;;;2.90;99.90;;;;;;4932834;29;20219;-75
2021/01/10 00:05:35;;;;;;;37.03;20.08;;;2.90;99.90;;;;;;4932734;29;20195;-73
2021/01/10 00:08:03;;;;;;;34.08;19.15;;;2.90;99.90;;;;;;4933052;29;20195;-74
2021/01/10 00:10:30;;;;;;;35.38;20.13;;;2.90;99.90;;;;;;4916462;29;20257;-74
2021/01/10 00:12:57;;;;;;;39.05;20.15;;;2.90;99.90;;;;;;4917900;29;20306;-74
2021/01/10 00:15:25;;;;;;;33.45;19.80;;;2.80;99.90;;;;;;4934508;29;20227;-74
2021/01/10 00:17:53;;;;;;;40.38;20.15;;;2.90;99.90;;;;;;4934870;29;20543;-74
2021/01/10 00:20:20;;;;;;;33.10;18.70;;;2.80;99.90;;;;;;4912383;29;20202;-74
2021/01/10 00:22:50;;;;;;;39.42;19.80;;;2.80;99.90;;;;;;4913727;29;20558;-74
2021/01/10 00:25:17;;;;;;;43.05;21.00;;;2.90;99.90;;;;;;4933215;29;20199;-74
2021/01/10 00:27:43;;;;;;;35.30;19.08;;;2.90;99.90;;;;;;4931955;29;20206;-73
2021/01/10 00:30:12;;;;;;;39.85;20.70;;;2.80;99.90;;;;;;4932460;29;20189;-74
2021/01/10 00:32:40;;;;;;;33.70;17.92;;;2.90;99.90;;;;;;4916582;29;20219;-73
2021/01/10 00:35:08;;;;;;;38.88;20.50;;;2.90;99.90;;;;;;4916774;29;20306;-74
2021/01/10 00:37:35;;;;;;;35.42;19.08;;;2.80;99.90;;;;;;4933901;29;20205;-73
2021/01/10 00:40:03;;;;;;;29.70;18.85;;;2.80;99.90;;;;;;4934333;29;20197;-73
2021/01/10 00:42:29;;;;;;;36.65;19.50;;;2.80;99.90;;;;;;4928893;29;20619;-74
2021/01/10 00:44:56;;;;;;;30.30;16.75;;;2.80;99.90;;;;;;4929879;29;20206;-73
2021/01/10 00:47:24;;;;;;;28.42;16.00;;;2.80;99.90;;;;;;4931953;29;20671;-74
2021/01/10 00:49:51;;;;;;;31.10;17.40;;;2.80;99.90;;;;;;4931365;29;20253;-74
2021/01/10 00:52:18;;;;;;;29.35;17.13;;;2.70;99.90;;;;;;4915144;29;20208;-74
2021/01/10 00:54:45;;;;;;;32.85;18.77;;;2.80;99.90;;;;;;4933196;29;20237;-74
2021/01/10 00:57:11;;;;;;;28.45;18.17;;;2.60;99.90;;;;;;4933853;29;20201;-74
2021/01/10 00:59:38;;;;;;;33.67;19.50;;;2.70;99.90;;;;;;4933992;29;20201;-74
2021/01/10 01:02:05;;;;;;;28.15;19.17;;;2.70;99.90;;;;;;4933773;29;20266;-73
2021/01/10 01:04:33;;;;;;;32.97;18.52;;;2.70;99.90;;;;;;4929611;29;20199;-73
2021/01/10 01:07:01;;;;;;;32.75;17.83;;;2.70;99.90;;;;;;4930104;29;20199;-74
2021/01/10 01:09:27;;;;;;;33.42;18.65;;;2.70;99.90;;;;;;4931954;29;20322;-73
2021/01/10 01:11:54;;;;;;;32.30;18.58;;;2.60;99.90;;;;;;4931909;29;20310;-74
2021/01/10 01:14:20;;;;;;;35.80;18.55;;;2.70;99.90;;;;;;4931684;29;20576;-73
2021/01/10 01:16:47;;;;;;;31.90;18.23;;;2.60;99.90;;;;;;4932969;29;20257;-74
2021/01/10 01:19:14;;;;;;;32.28;18.50;;;2.60;99.90;;;;;;4933439;29;20222;-73
2021/01/10 01:21:40;;;;;;;31.00;17.90;;;2.60;99.90;;;;;;4926573;29;20215;-74
2021/01/10 01:24:08;;;;;;;36.28;19.30;;;2.60;99.90;;;;;;4933836;29;20286;-74
2021/01/10 01:26:35;;;;;;;31.63;18.05;;;2.70;99.90;;;;;;4929096;29;20561;-74
2021/01/10 01:29:02;;;;;;;36.53;19.20;;;2.60;99.90;;;;;;4929291;29;20229;-73
2021/01/10 01:31:29;;;;;;;33.17;19.05;;;2.60;99.90;;;;;;4930959;29;20192;-74
2021/01/10 01:33:56;;;;;;;30.42;18.90;;;2.70;99.90;;;;;;4930672;29;20257;-74
2021/01/10 01:36:27;;;;;;;36.80;19.67;;;2.70;99.90;;;;;;4931910;29;20230;-73
2021/01/10 01:38:55;;;;;;;36.50;18.70;;;2.70;99.90;;;;;;4931856;29;20207;-74
2021/01/10 01:41:22;;;;;;;35.10;20.40;;;2.70;99.90;;;;;;4933249;29;20215;-73
2021/01/10 01:43:49;;;;;;;34.33;20.42;;;2.70;99.90;;;;;;4933090;29;20199;-74
2021/01/10 01:46:26;;;;;;;29.95;18.55;;;2.70;99.90;;;;;;4916706;29;20206;-74
2021/01/10 01:48:53;;;;;;;27.00;16.73;;;2.70;99.90;;;;;;4933249;29;20199;-74
2021/01/10 01:51:20;;;;;;;28.25;17.45;;;2.70;99.90;;;;;;4916294;29;20191;-73
2021/01/10 01:53:47;;;;;;;28.90;16.95;;;2.70;99.90;;;;;;4935223;29;20205;-74
2021/01/10 01:56:13;;;;;;;27.50;17.20;;;2.70;99.90;;;;;;4927917;29;20676;-74
2021/01/10 01:58:56;;;;;;;29.10;17.90;;;2.70;99.90;;;;;;4935035;29;20198;-74
2021/01/10 02:01:23;;;;;;;30.88;17.65;;;2.60;99.90;;;;;;4935514;29;20217;-73
2021/01/10 02:03:50;;;;;;;30.05;17.80;;;2.60;99.90;;;;;;4937211;29;20204;-74
2021/01/10 02:06:23;;;;;;;30.17;17.05;;;2.70;99.90;;;;;;4937090;29;20193;-74
2021/01/10 02:08:56;;;;;;;34.95;17.27;;;2.60;99.90;;;;;;4936937;29;20203;-73
2021/01/10 02:11:27;;;;;;;33.15;17.35;;;2.60;99.90;;;;;;4931961;29;20290;-73
2021/01/10 02:13:54;;;;;;;32.03;18.50;;;2.70;99.90;;;;;;4915622;29;20241;-74
2021/01/10 02:16:21;;;;;;;32.13;18.40;;;2.70;99.90;;;;;;4934582;29;20665;-74
2021/01/10 02:18:48;;;;;;;30.02;17.80;;;2.70;99.90;;;;;;4935158;29;20199;-74
2021/01/10 02:21:18;;;;;;;30.77;17.90;;;2.60;99.90;;;;;;4935119;29;20199;-75
2021/01/10 02:23:46;;;;;;;32.58;18.63;;;2.70;99.90;;;;;;4929990;29;20290;-74
2021/01/10 02:26:13;;;;;;;33.47;19.15;;;2.70;99.90;;;;;;4936179;29;20199;-74
2021/01/10 02:28:40;;;;;;;32.70;19.08;;;2.60;99.90;;;;;;4936853;29;20201;-74
2021/01/10 02:31:09;;;;;;;30.75;18.50;;;2.60;99.90;;;;;;4936765;29;20203;-74
2021/01/10 02:33:45;;;;;;;35.88;20.08;;;2.50;99.90;;;;;;4932241;29;20219;-74
2021/01/10 02:36:31;;;;;;;32.95;17.65;;;2.50;99.90;;;;;;4931622;29;20282;-74
2021/01/10 02:39:06;;;;;;;40.22;20.17;;;2.60;99.90;;;;;;4929872;29;20194;-74
2021/01/10 02:41:42;;;;;;;32.30;19.30;;;2.60;99.90;;;;;;4934000;29;20194;-74
2021/01/10 02:44:16;;;;;;;29.52;17.75;;;2.50;99.90;;;;;;4934570;29;20600;-73
2021/01/10 02:46:48;;;;;;;41.33;20.05;;;2.50;99.90;;;;;;4935608;29;20209;-73
2021/01/10 02:49:14;;;;;;;36.13;18.55;;;2.50;99.90;;;;;;4936354;29;20653;-73
2021/01/10 02:51:41;;;;;;;34.95;19.42;;;2.50;99.90;;;;;;4935720;29;20219;-73
2021/01/10 02:54:08;;;;;;;32.00;17.63;;;2.60;99.90;;;;;;4935923;29;20229;-74
2021/01/10 02:56:39;;;;;;;31.65;17.27;;;2.60;99.90;;;;;;4930839;29;20201;-74
2021/01/10 02:59:07;;;;;;;31.98;17.67;;;2.50;99.90;;;;;;4931604;29;20203;-74
2021/01/10 03:01:35;;;;;;;26.85;17.40;;;2.60;99.90;;;;;;4933771;29;20202;-73
2021/01/10 03:04:03;;;;;;;30.88;17.70;;;2.50;99.90;;;;;;4933974;29;20197;-74
2021/01/10 03:06:30;;;;;;;33.47;18.20;;;2.60;99.90;;;;;;4934125;29;20659;-73
2021/01/10 03:08:57;;;;;;;32.97;19.45;;;2.60;99.90;;;;;;4935443;29;20231;-73
2021/01/10 03:11:25;;;;;;;31.52;18.20;;;2.50;99.90;;;;;;4935788;29;20278;-74
2021/01/10 03:13:52;;;;;;;31.38;18.50;;;2.60;99.90;;;;;;4935523;29;20667;-73
2021/01/10 03:16:19;;;;;;;34.15;18.73;;;2.60;99.90;;;;;;4935699;29;20195;-73
2021/01/10 03:18:46;;;;;;;29.25;18.10;;;2.50;99.90;;;;;;4930614;29;20587;-73
2021/01/10 03:21:13;;;;;;;37.03;19.27;;;2.60;99.90;;;;;;4932054;29;20254;-74
2021/01/10 03:23:40;;;;;;;30.33;17.98;;;2.60;99.90;;;;;;4933531;29;20219;-73
2021/01/10 03:26:06;;;;;;;37.28;19.02;;;2.60;99.90;;;;;;4933496;29;20187;-74
2021/01/10 03:28:33;;;;;;;27.58;17.00;;;2.60;99.90;;;;;;4934004;29;20210;-73
2021/01/10 03:31:00;;;;;;;38.30;18.90;;;2.60;99.90;;;;;;4931747;29;20199;-73
2021/01/10 03:33:27;;;;;;;31.73;18.08;;;2.60;99.90;;;;;;4935618;29;20207;-73
2021/01/10 03:35:53;;;;;;;32.55;19.65;;;2.70;99.90;;;;;;4935002;29;20325;-74
2021/01/10 03:38:20;;;;;;;34.83;17.60;;;2.60;99.90;;;;;;4935365;29;20187;-73
2021/01/10 03:40:46;;;;;;;31.63;16.95;;;2.70;99.90;;;;;;4930162;29;20202;-74
2021/01/10 03:43:13;;;;;;;36.42;18.17;;;2.70;99.90;;;;;;4931225;29;20630;-73
2021/01/10 03:45:40;;;;;;;31.48;17.83;;;2.70;99.90;;;;;;4933391;29;20198;-73
2021/01/10 03:48:08;;;;;;;27.63;16.35;;;2.70;99.90;;;;;;4926131;29;20282;-73
2021/01/10 03:50:35;;;;;;;31.80;19.08;;;2.70;99.90;;;;;;4933524;29;20198;-74
2021/01/10 03:53:01;;;;;;;34.30;18.23;;;2.60;99.90;;;;;;4933439;29;20227;-73
2021/01/10 03:55:28;;;;;;;29.08;16.77;;;2.60;99.90;;;;;;4935002;29;20282;-73
2021/01/10 03:57:54;;;;;;;33.17;17.38;;;2.60;99.90;;;;;;4935088;29;20258;-74
2021/01/10 04:00:21;;;;;;;27.50;16.58;;;2.60;99.90;;;;;;4934994;29;20661;-73
2021/01/10 04:02:48;;;;;;;33.38;19.30;;;2.60;99.90;;;;;;4923664;29;20583;-73
2021/01/10 04:05:15;;;;;;;37.75;18.55;;;2.60;99.90;;;;;;4927855;29;20187;-72
2021/01/10 04:07:42;;;;;;;36.85;19.02;;;2.70;99.90;;;;;;4932909;29;20221;-74
2021/01/10 04:10:09;;;;;;;31.92;18.42;;;2.70;99.90;;;;;;4931473;29;20233;-72
2021/01/10 04:12:36;;;;;;;30.95;16.92;;;2.60;99.90;;;;;;4932942;29;20755;-73
2021/01/10 04:15:03;;;;;;;33.58;17.33;;;2.60;99.90;;;;;;4933358;29;20226;-73
2021/01/10 04:17:29;;;;;;;26.45;16.15;;;2.60;99.90;;;;;;4934744;29;20520;-73
2021/01/10 04:19:56;;;;;;;27.60;16.27;;;2.60;99.90;;;;;;4934314;29;20249;-73
2021/01/10 04:22:24;;;;;;;32.28;17.95;;;2.60;99.90;;;;;;4934409;29;20230;-73
2021/01/10 04:24:51;;;;;;;28.50;15.98;;;2.60;99.90;;;;;;4931041;29;20191;-72
2021/01/10 04:27:17;;;;;;;27.83;17.50;;;2.60;99.90;;;;;;4930068;29;20191;-73
2021/01/10 04:29:44;;;;;;;32.80;16.73;;;2.60;99.90;;;;;;4932217;29;20198;-73
2021/01/10 04:32:10;;;;;;;30.95;16.77;;;2.60;99.90;;;;;;4931950;29;20218;-73
2021/01/10 04:34:37;;;;;;;32.67;17.52;;;2.60;99.90;;;;;;4932664;29;20221;-73
2021/01/10 04:37:04;;;;;;;36.45;18.70;;;2.50;99.90;;;;;;4932307;29;20679;-73
2021/01/10 04:39:31;;;;;;;26.83;16.73;;;2.60;99.90;;;;;;4934474;29;20203;-73
2021/01/10 04:41:59;;;;;;;27.30;16.55;;;2.60;99.90;;;;;;4934414;29;20221;-73
2021/01/10 04:44:25;;;;;;;31.38;18.05;;;2.50;99.90;;;;;;4916488;29;20271;-73
2021/01/10 04:46:53;;;;;;;30.50;16.05;;;2.50;99.90;;;;;;4931215;29;20293;-73
2021/01/10 04:49:20;;;;;;;35.45;17.15;;;2.50;99.90;;;;;;4928943;29;20209;-73
2021/01/10 04:51:47;;;;;;;33.08;18.88;;;2.50;99.90;;;;;;4914769;29;20215;-73
2021/01/10 04:54:15;;;;;;;34.00;19.55;;;2.50;99.90;;;;;;4932116;29;20580;-73
2021/01/10 04:56:44;;;;;;;31.77;18.50;;;2.40;99.90;;;;;;4932234;29;20199;-72
2021/01/10 04:59:11;;;;;;;24.55;15.48;;;2.40;99.90;;;;;;4932210;29;20195;-73
2021/01/10 05:01:44;;;;;;;33.10;18.55;;;2.50;99.90;;;;;;4917194;29;20215;-73
2021/01/10 05:04:11;;;;;;;31.17;17.85;;;2.50;99.90;;;;;;4933795;29;20195;-73
2021/01/10 05:06:38;;;;;;;30.88;18.60;;;2.50;99.90;;;;;;4917048;29;20278;-73
2021/01/10 05:09:06;;;;;;;33.20;18.75;;;2.50;99.90;;;;;;4930483;29;20574;-73
2021/01/10 05:11:33;;;;;;;26.58;16.65;;;2.50;99.90;;;;;;4928651;29;20259;-73
2021/01/10 05:14:00;;;;;;;29.50;17.92;;;2.50;99.90;;;;;;4928073;29;20622;-73
2021/01/10 05:16:31;;;;;;;28.98;17.42;;;2.60;99.90;;;;;;4931337;29;20202;-73
2021/01/10 05:18:58;;;;;;;37.45;18.52;;;2.60;99.90;;;;;;4914988;29;20199;-73
2021/01/10 05:21:25;;;;;;;37.55;17.65;;;2.50;99.90;;;;;;4931484;29;20282;-73
2021/01/10 05:23:52;;;;;;;30.77;17.05;;;2.50;99.90;;;;;;4933805;29;20588;-73
2021/01/10 05:26:19;;;;;;;31.90;16.50;;;2.50;99.90;;;;;;4933620;29;20253;-75
2021/01/10 05:28:47;;;;;;;31.52;18.60;;;2.60;99.90;;;;;;4916952;29;20201;-75
2021/01/10 05:31:32;;;;;;;34.67;18.10;;;2.50;99.90;;;;;;4931002;29;20227;-74
2021/01/10 05:33:58;;;;;;;31.50;17.48;;;2.50;99.90;;;;;;4911781;29;20578;-74
2021/01/10 05:36:27;;;;;;;34.70;18.10;;;2.50;99.90;;;;;;4930679;29;20299;-74
2021/01/10 05:38:54;;;;;;;29.50;17.52;;;2.40;99.90;;;;;;4931926;29;20217;-73
2021/01/10 05:41:23;;;;;;;33.80;18.33;;;2.40;99.90;;;;;;4931197;29;20246;-74
2021/01/10 05:44:04;;;;;;;35.50;18.58;;;2.40;99.90;;;;;;4931671;29;20206;-74
2021/01/10 05:46:32;;;;;;;35.10;18.65;;;2.40;99.90;;;;;;4918551;29;20660;-74
2021/01/10 05:49:00;;;;;;;34.10;17.90;;;2.40;99.90;;;;;;4933608;29;20226;-74
2021/01/10 05:51:29;;;;;;;32.75;18.80;;;2.40;99.90;;;;;;4916067;29;20195;-74
2021/01/10 05:53:55;;;;;;;30.58;17.80;;;2.50;99.90;;;;;;4930045;29;20201;-73
2021/01/10 05:56:22;;;;;;;32.88;18.80;;;2.50;99.90;;;;;;4927618;29;20199;-74
2021/01/10 05:58:57;;;;;;;35.25;18.45;;;2.50;99.90;;;;;;4930728;29;20669;-74
2021/01/10 06:01:25;;;;;;;30.83;17.63;;;2.30;99.90;;;;;;4930921;29;20280;-73
2021/01/10 06:03:53;;;;;;;30.83;19.10;;;2.40;99.90;;;;;;4914255;29;20203;-74
2021/01/10 06:06:20;;;;;;;31.98;18.13;;;2.40;99.90;;;;;;4931508;29;20200;-74
2021/01/10 06:08:47;;;;;;;27.17;16.77;;;2.40;99.90;;;;;;4933088;29;20199;-74
2021/01/10 06:11:28;;;;;;;32.53;18.35;;;2.40;99.90;;;;;;4916241;29;20609;-73
2021/01/10 06:13:57;;;;;;;36.92;19.10;;;2.30;99.90;;;;;;4913174;29;20657;-73
2021/01/10 06:16:26;;;;;;;32.92;17.20;;;2.30;99.90;;;;;;4912705;29;20290;-74
2021/01/10 06:18:56;;;;;;;36.85;18.95;;;2.30;99.90;;;;;;4928726;29;20194;-73
2021/01/10 06:21:24;;;;;;;29.58;15.95;;;2.30;99.90;;;;;;4913136;29;20213;-74
2021/01/10 06:23:54;;;;;;;32.63;16.33;;;2.30;99.90;;;;;;4931218;29;20645;-73
2021/01/10 06:26:23;;;;;;;35.95;19.35;;;2.30;99.90;;;;;;4931324;29;20226;-74
2021/01/10 06:28:53;;;;;;;29.25;16.83;;;2.30;99.90;;;;;;4915031;29;20210;-74
2021/01/10 06:31:23;;;;;;;34.85;19.52;;;2.30;99.90;;;;;;4932594;29;20192;-73
2021/01/10 06:33:57;;;;;;;31.02;18.23;;;2.30;99.90;;;;;;4934343;29;20198;-73
2021/01/10 06:36:27;;;;;;;36.47;17.90;;;2.20;99.90;;;;;;4919977;29;20383;-74
2021/01/10 06:39:00;;;;;;;33.40;17.15;;;2.20;99.90;;;;;;4932428;29;20567;-73
2021/01/10 06:41:50;;;;;;;33.50;17.15;;;2.30;99.90;;;;;;4914886;29;20191;-74
2021/01/10 06:44:20;;;;;;;32.45;17.70;;;2.30;99.90;;;;;;4934678;29;20209;-74
2021/01/10 06:46:49;;;;;;;29.83;16.52;;;2.20;99.90;;;;;;4910475;29;20191;-73
2021/01/10 06:49:17;;;;;;;34.97;18.70;;;2.20;99.90;;;;;;4935392;29;20551;-73
2021/01/10 06:51:45;;;;;;;33.22;17.20;;;2.20;99.90;;;;;;4936271;29;20228;-74
2021/01/10 06:54:12;;;;;;;31.52;16.60;;;2.20;99.90;;;;;;4937494;29;20195;-73
2021/01/10 06:56:39;;;;;;;27.40;15.55;;;2.20;99.90;;;;;;4919411;29;20276;-73
2021/01/10 06:59:08;;;;;;;31.90;16.75;;;2.30;99.90;;;;;;4920816;29;20210;-74
2021/01/10 07:02:04;;;;;;;28.20;16.70;;;2.20;99.90;;;;;;4931147;29;20205;-73
2021/01/10 07:05:00;;;;;;;28.15;16.67;;;2.30;99.90;;;;;;4916462;29;20207;-73
2021/01/10 07:07:38;;;;;;;30.13;18.08;;;2.20;99.90;;;;;;4918267;29;20627;-73
2021/01/10 07:10:08;;;;;;;39.85;18.95;;;2.30;99.90;;;;;;4933731;29;20305;-76
2021/01/10 07:12:34;;;;;;;33.50;18.00;;;2.30;99.90;;;;;;4933076;29;20219;-73
2021/01/10 07:15:30;;;;;;;27.15;16.65;;;2.30;99.90;;;;;;4931827;29;20219;-73
2021/01/10 07:18:02;;;;;;;29.27;16.25;;;2.30;99.90;;;;;;4916911;29;20195;-74
2021/01/10 07:20:34;;;;;;;25.67;15.00;;;2.30;99.90;;;;;;4933778;29;20202;-73
2021/01/10 07:23:30;;;;;;;32.47;17.35;;;2.30;99.90;;;;;;4933548;29;20211;-74
2021/01/10 07:25:59;;;;;;;30.80;17.48;;;2.30;99.90;;;;;;4920468;29;20186;-80
2021/01/10 07:28:37;;;;;;;28.83;14.43;;;2.40;99.90;;;;;;4916017;29;20277;-77
2021/01/10 07:31:06;;;;;;;30.40;17.10;;;2.30;99.90;;;;;;4929879;29;20191;-78
2021/01/10 07:33:33;;;;;;;26.85;16.98;;;2.30;99.90;;;;;;4934906;29;20255;-80
2021/01/10 07:36:01;;;;;;;32.05;17.77;;;2.30;99.90;;;;;;4933917;29;20759;-73
2021/01/10 07:38:27;;;;;;;29.00;16.50;;;2.50;99.90;;;;;;4912582;29;20250;-73
2021/01/10 07:40:54;;;;;;;31.75;18.83;;;2.40;99.90;;;;;;4931918;29;20198;-74
2021/01/10 07:43:22;;;;;;;28.88;17.38;;;2.40;99.90;;;;;;4916216;29;20242;-74
2021/01/10 07:45:49;;;;;;;27.80;18.17;;;2.40;99.90;;;;;;4931699;29;20727;-72
2021/01/10 07:48:26;;;;;;;31.50;18.85;;;2.50;99.90;;;;;;4932579;29;20245;-72
2021/01/10 07:51:15;;;;;;;38.50;19.00;;;2.40;99.90;;;;;;4932383;29;20238;-73
2021/01/10 07:53:49;;;;;;;29.70;19.33;;;2.40;99.90;;;;;;4915737;29;20227;-73
2021/01/10 07:56:16;;;;;;;30.58;18.17;;;2.50;99.90;;;;;;4928039;29;20254;-73
2021/01/10 07:58:43;;;;;;;35.17;18.83;;;2.50;99.90;;;;;;4916038;29;20195;-76
2021/01/10 08:01:10;;;;;;;28.50;17.02;;;2.50;99.90;;;;;;4932764;29;20315;-73
2021/01/10 08:03:37;;;;;;;30.35;17.50;;;2.50;99.90;;;;;;4933082;29;20293;-72
2021/01/10 08:06:05;;;;;;;28.02;17.30;;;2.50;99.90;;;;;;4934727;29;20187;-74
2021/01/10 08:08:45;;;;;;;28.55;16.92;;;2.50;99.90;;;;;;4917782;29;20199;-73
2021/01/10 08:11:13;;;;;;;31.70;17.55;;;2.60;99.90;;;;;;4912842;29;20203;-74
2021/01/10 08:13:41;;;;;;;31.38;18.42;;;2.50;99.90;;;;;;4927841;29;20218;-73
2021/01/10 08:16:10;;;;;;;28.60;17.38;;;2.40;99.90;;;;;;4929272;29;20343;-72
2021/01/10 08:18:38;;;;;;;37.63;23.40;;;2.60;99.90;;;;;;4930073;29;20544;-74
2021/01/10 08:21:07;;;;;;;31.77;18.70;;;2.50;99.90;;;;;;4915514;29;20198;-73
2021/01/10 08:23:34;;;;;;;30.20;18.27;;;2.50;99.90;;;;;;4915749;29;20241;-73
2021/01/10 08:26:07;;;;;;;32.17;18.73;;;2.60;99.90;;;;;;4933801;29;20301;-74
2021/01/10 08:28:37;;;;;;;37.42;19.23;;;2.60;99.90;;;;;;4934609;29;20217;-74
2021/01/10 08:31:07;;;;;;;34.78;19.83;;;2.60;99.90;;;;;;4910689;29;20187;-74
2021/01/10 08:33:35;;;;;;;30.38;18.48;;;2.50;99.90;;;;;;4917567;29;20359;-74
2021/01/10 08:36:17;;;;;;;33.25;19.15;;;2.60;99.90;;;;;;4928999;29;20333;-73
2021/01/10 08:38:49;;;;;;;33.83;17.60;;;2.60;99.90;;;;;;4915026;29;20207;-73
2021/01/10 08:41:22;;;;;;;33.47;19.45;;;2.70;99.90;;;;;;4932566;29;20751;-72
2021/01/10 08:43:50;;;;;;;28.13;18.10;;;2.70;99.90;;;;;;4932015;29;20192;-73
2021/01/10 08:46:17;;;;;;;32.38;20.13;;;2.70;99.90;;;;;;4926555;29;20246;-73
2021/01/10 08:48:44;;;;;;;37.63;19.67;;;2.70;99.90;;;;;;4916432;29;20207;-73
2021/01/10 08:51:28;;;;;;;36.75;21.17;;;2.70;99.90;;;;;;4934328;29;20213;-75
2021/01/10 08:53:55;;;;;;;31.55;18.95;;;2.80;99.90;;;;;;4917332;29;20289;-73
2021/01/10 08:56:22;;;;;;;38.58;19.00;;;2.70;99.90;;;;;;4933836;29;20752;-73
2021/01/10 08:58:53;;;;;;;34.05;19.65;;;2.80;99.90;;;;;;4929279;29;21400;-73
2021/01/10 09:01:20;;;;;;;39.97;18.33;;;2.70;99.90;;;;;;4928784;29;20201;-73
2021/01/10 09:04:04;;;;;;;33.47;18.50;;;2.90;99.90;;;;;;4931489;29;20738;-73
2021/01/10 09:06:51;;;;;;;35.70;19.50;;;2.80;99.90;;;;;;4917283;29;20199;-73
2021/01/10 09:09:28;;;;;;;39.42;21.00;;;2.80;99.90;;;;;;4916872;29;20218;-74
2021/01/10 09:12:02;;;;;;;38.20;20.70;;;2.90;99.90;;;;;;4932208;29;20677;-74
2021/01/10 09:14:33;;;;;;;38.10;21.63;;;2.90;99.90;;;;;;4915313;29;20191;-73
2021/01/10 09:17:01;;;;;;;34.90;20.25;;;3.00;99.90;;;;;;4928409;29;20196;-73
2021/01/10 09:19:34;;;;;;;39.20;21.65;;;3.00;99.90;;;;;;4930477;29;20195;-74
2021/01/10 09:22:02;;;;;;;37.13;21.13;;;3.00;99.90;;;;;;4931505;29;20231;-74
2021/01/10 09:24:32;;;;;;;35.85;19.05;;;3.00;99.90;;;;;;4914781;29;20282;-73
2021/01/10 09:27:09;;;;;;;35.55;19.63;;;3.10;99.90;;;;;;4931795;29;20195;-73
2021/01/10 09:29:36;;;;;;;36.72;20.23;;;3.10;99.90;;;;;;4933830;29;20223;-73
2021/01/10 09:32:03;;;;;;;38.78;20.73;;;3.10;99.90;;;;;;4933145;29;20215;-73
2021/01/10 09:34:30;;;;;;;38.63;20.48;;;3.10;99.90;;;;;;4932950;29;20559;-73
2021/01/10 09:37:05;;;;;;;33.65;18.60;;;3.10;99.90;;;;;;4932434;29;20205;-73
2021/01/10 09:39:41;;;;;;;36.83;19.38;;;3.10;99.90;;;;;;4903161;29;20195;-73
2021/01/10 09:42:08;;;;;;;37.60;19.15;;;3.20;99.90;;;;;;4911796;29;20233;-74
2021/01/10 09:44:35;;;;;;;39.78;21.73;;;3.20;99.90;;;;;;4914069;29;20199;-74
2021/01/10 09:47:02;;;;;;;33.92;19.48;;;3.20;99.90;;;;;;4909416;29;20191;-73
2021/01/10 09:49:31;;;;;;;44.33;22.08;;;3.30;99.90;;;;;;4931092;29;20198;-72
2021/01/10 09:52:06;;;;;;;40.45;21.95;;;3.30;99.90;;;;;;4929912;29;20215;-73
2021/01/10 09:54:35;;;;;;;42.70;20.42;;;3.30;99.90;;;;;;4928356;29;20679;-73
2021/01/10 09:57:03;;;;;;;42.95;21.73;;;3.40;99.90;;;;;;4930523;29;20687;-73
2021/01/10 09:59:40;;;;;;;39.42;20.63;;;3.40;99.90;;;;;;4914283;29;20203;-73
2021/01/10 10:02:10;;;;;;;37.75;19.20;;;3.40;99.90;;;;;;4929230;29;20214;-73
2021/01/10 10:04:38;;;;;;;38.60;21.55;;;3.40;99.90;;;;;;4931712;29;20211;-72
2021/01/10 10:07:05;;;;;;;40.28;19.95;;;3.50;99.90;;;;;;4913495;29;20199;-72
2021/01/10 10:09:48;;;;;;;39.85;21.00;;;3.40;99.90;;;;;;4934427;29;20680;-73
2021/01/10 10:12:15;;;;;;;41.00;21.63;;;3.40;99.90;;;;;;4922020;29;20714;-74
2021/01/10 10:14:51;;;;;;;33.08;19.80;;;3.50;99.90;;;;;;4933786;29;20580;-79
2021/01/10 10:17:18;;;;;;;29.60;18.13;;;3.50;99.90;;;;;;4927557;29;20206;-73
2021/01/10 10:19:46;;;;;;;36.05;19.73;;;3.50;99.90;;;;;;4916055;29;20195;-73
2021/01/10 10:22:22;;;;;;;41.95;21.50;;;3.50;99.90;;;;;;4935000;29;20227;-73
2021/01/10 10:24:48;;;;;;;36.08;19.10;;;3.50;99.90;;;;;;4910856;29;20194;-72
2021/01/10 10:27:15;;;;;;;31.77;19.38;;;3.60;99.90;;;;;;4935354;29;20203;-75
2021/01/10 10:29:41;;;;;;;34.70;19.40;;;3.60;99.90;;;;;;4935965;29;20657;-75
2021/01/10 10:32:08;;;;;;;38.72;22.27;;;3.50;99.90;;;;;;4935204;29;20213;-75
2021/01/10 10:34:36;;;;;;;44.03;23.38;;;3.60;99.90;;;;;;4936181;29;20573;-74
2021/01/10 10:37:04;;;;;;;41.08;23.85;;;3.60;99.90;;;;;;4934444;29;20206;-77
2021/01/10 10:39:30;;;;;;;35.75;22.45;;;3.60;99.90;;;;;;4913742;29;20208;-74
2021/01/10 10:41:57;;;;;;;38.78;21.02;;;3.70;99.90;;;;;;4932875;29;20223;-74
2021/01/10 10:44:24;;;;;;;40.13;21.27;;;3.70;99.90;;;;;;4934049;29;20193;-74
2021/01/10 10:46:50;;;;;;;34.80;20.52;;;3.60;99.90;;;;;;4934452;29;20209;-74
2021/01/10 10:49:17;;;;;;;34.42;20.13;;;3.60;99.90;;;;;;4934710;29;20285;-86
2021/01/10 10:51:43;;;;;;;32.75;20.13;;;3.70;99.90;;;;;;4936417;29;20220;-80
2021/01/10 10:54:14;;;;;;;34.20;19.80;;;3.80;99.90;;;;;;4933390;29;20195;-76
2021/01/10 10:56:41;;;;;;;35.33;20.08;;;3.80;99.90;;;;;;4936491;29;20219;-81
2021/01/10 10:59:08;;;;;;;38.28;19.95;;;3.80;99.90;;;;;;4939767;29;20728;-75
2021/01/10 11:01:39;;;;;;;34.78;19.75;;;3.90;99.90;;;;;;4932210;29;20183;-75
2021/01/10 11:04:06;;;;;;;38.45;19.58;;;3.80;99.90;;;;;;4930405;29;20198;-76
2021/01/10 11:06:33;;;;;;;35.10;19.60;;;3.90;99.90;;;;;;4932309;29;20208;-77
2021/01/10 11:09:00;;;;;;;32.28;19.80;;;3.90;99.90;;;;;;4915118;29;20246;-75
2021/01/10 11:11:36;;;;;;;34.72;18.85;;;3.90;99.90;;;;;;4917366;29;20191;-75
2021/01/10 11:14:03;;;;;;;36.97;19.58;;;3.90;99.90;;;;;;4918141;29;20225;-75
2021/01/10 11:16:30;;;;;;;33.92;19.65;;;3.90;99.90;;;;;;4918630;29;20237;-75
2021/01/10 11:18:56;;;;;;;42.72;20.05;;;3.90;99.90;;;;;;4935561;29;20195;-75
2021/01/10 11:21:27;;;;;;;30.38;18.55;;;4.00;99.90;;;;;;4935232;29;20191;-75
2021/01/10 11:23:54;;;;;;;36.25;20.90;;;3.90;99.90;;;;;;4931551;29;20254;-75
2021/01/10 11:26:21;;;;;;;32.97;20.10;;;4.00;99.90;;;;;;4930972;29;20294;-75
2021/01/10 11:28:49;;;;;;;35.88;20.30;;;3.90;99.90;;;;;;4933277;29;20206;-75
2021/01/10 11:31:16;;;;;;;32.85;19.83;;;4.00;99.90;;;;;;4933676;29;20250;-75
2021/01/10 11:33:42;;;;;;;31.52;18.65;;;4.10;99.90;;;;;;4933444;29;20191;-75
2021/01/10 11:36:09;;;;;;;34.85;21.77;;;4.10;99.90;;;;;;4934220;29;20687;-75
2021/01/10 11:38:36;;;;;;;32.22;20.40;;;4.10;99.90;;;;;;4935544;29;20202;-75
2021/01/10 11:41:11;;;;;;;33.38;19.75;;;4.10;99.90;;;;;;4918352;29;20205;-75
2021/01/10 11:43:39;;;;;;;35.70;20.92;;;4.20;99.90;;;;;;4917953;29;20620;-76
2021/01/10 11:46:07;;;;;;;35.47;20.92;;;4.20;99.90;;;;;;4908272;29;21233;-75
2021/01/10 11:48:36;;;;;;;36.78;20.80;;;4.20;99.90;;;;;;4914029;29;20195;-76
2021/01/10 11:51:05;;;;;;;33.95;19.35;;;4.20;99.90;;;;;;4915643;29;20213;-75
2021/01/10 11:53:33;;;;;;;34.90;20.35;;;4.30;99.90;;;;;;4926514;29;20245;-75
2021/01/10 11:56:00;;;;;;;35.80;19.58;;;4.30;99.90;;;;;;4933066;29;20310;-76
2021/01/10 11:58:27;;;;;;;39.60;20.10;;;4.30;99.90;;;;;;4917005;29;20203;-75
2021/01/10 12:00:54;;;;;;;38.85;19.80;;;4.30;99.90;;;;;;4917173;29;20209;-75
2021/01/10 12:03:23;;;;;;;30.77;18.40;;;4.30;99.90;;;;;;4935155;29;20203;-75
2021/01/10 12:05:50;;;;;;;36.75;21.55;;;4.30;99.90;;;;;;4916301;29;20278;-75
2021/01/10 12:08:17;;;;;;;34.08;20.63;;;4.40;99.90;;;;;;4925812;29;20191;-74
2021/01/10 12:10:45;;;;;;;36.20;22.35;;;4.40;99.90;;;;;;4927358;29;20768;-75
2021/01/10 12:13:13;;;;;;;34.20;21.70;;;4.30;99.90;;;;;;4912509;29;20229;-75
2021/01/10 12:15:41;;;;;;;34.38;20.10;;;4.40;99.90;;;;;;4929561;29;20713;-75
2021/01/10 12:18:09;;;;;;;33.65;19.85;;;4.40;99.90;;;;;;4929213;29;20201;-77
2021/01/10 12:20:36;;;;;;;30.05;19.20;;;4.40;99.90;;;;;;4910776;29;20691;-75
2021/01/10 12:23:03;;;;;;;32.75;19.20;;;4.40;99.90;;;;;;4911537;29;20665;-73
2021/01/10 12:25:30;;;;;;;36.90;20.15;;;4.40;99.90;;;;;;4931048;29;20751;-75
2021/01/10 12:27:57;;;;;;;33.78;20.60;;;4.40;99.90;;;;;;4930658;29;20289;-76
2021/01/10 12:30:24;;;;;;;34.63;21.13;;;4.50;99.90;;;;;;4926322;29;20281;-75
2021/01/10 12:32:51;;;;;;;31.92;20.40;;;4.40;99.90;;;;;;4925783;29;20211;-76
2021/01/10 12:35:19;;;;;;;33.45;21.15;;;4.50;99.90;;;;;;4911334;29;20225;-74
2021/01/10 12:37:48;;;;;;;30.77;20.23;;;4.40;99.90;;;;;;4912514;29;20195;-75
2021/01/10 12:40:15;;;;;;;34.50;20.13;;;4.40;99.90;;;;;;4912443;29;20551;-75
2021/01/10 12:42:42;;;;;;;37.08;21.52;;;4.40;99.90;;;;;;4928688;29;20633;-75
2021/01/10 12:45:12;;;;;;;33.47;20.08;;;4.40;99.90;;;;;;4930125;29;20230;-72